KHLR/HLR METAR and TAF weather

Enter ICAO airport designator
Station Type Date Time Source
KHLR METAR 2020/08/14 16:58 UTC NOAA

KHLR 141658Z AUTO 18012KT 10SM CLR 36/18 A2994 RMK AO2 SLP124 T03590181


Station Type Date Time Source
KHLR Decoded METAR 2020/08/14 16:58 UTC NOAA

Fort Hood, Hood AAF Ft Hood, TX, United States (KHLR) 31-08N 097-42W
Aug 14, 2020 - 12:58 PM EDT / 2020.08.14 1658 UTC
Wind: from the S (180 degrees) at 14 MPH (12 KT):0
Visibility: 10 mile(s):0
Sky conditions: clear
Temperature: 96.6 F (35.9 C)
Heat index: 99.1 F (37.3 C):1
Dew Point: 64.6 F (18.1 C)
Relative Humidity: 35%
Pressure (altimeter): 29.94 in. Hg (1013 hPa)
ob: KHLR 141658Z AUTO 18012KT 10SM CLR 36/18 A2994 RMK AO2 SLP124 T03590181
cycle: 17

Station Type Date Time Source
KHLR TAF UTC NOAA

Error!

Example: see airport list